Time;durP1;ratioP1;P1;durP2;ratioP2;P2;SDS_P1;SDS_P2;PMS_P1;PMS_P2;Temp;Humidity;BMP_temperature;BMP_pressure;BME280_temperature;BME280_humidity;BME280_pressure;Samples;Min_cycle;Max_cycle;Signal;HPM_P1;HPM_P2
2021/05/25 00:03:33;;;;;;;11.30;2.23;;;8.60;99.90;;;;;;4977860;28;20500;-83
2021/05/25 00:06:23;;;;;;;;;;;;;;;;;;;;;
2021/05/25 00:09:42;;;;;;;8.20;2.10;;;8.60;99.90;;;;;;4996210;28;20466;-83
2021/05/25 00:12:22;;;;;;;7.70;2.00;;;8.60;99.90;;;;;;4972466;28;20526;-84
2021/05/25 00:15:32;;;;;;;7.83;1.83;;;8.70;99.90;;;;;;4996084;28;20457;-84
2021/05/25 00:27:12;;;;;;;7.50;1.60;;;8.60;99.90;;;;;;4995487;28;20449;-85
2021/05/25 00:39:25;;;;;;;7.47;1.17;;;8.90;99.90;;;;;;4894827;28;20498;-85
2021/05/25 00:45:44;;;;;;;9.73;1.53;;;8.70;97.60;;;;;;4994443;28;20450;-83
2021/05/25 00:51:40;;;;;;;7.47;1.40;;;8.70;92.30;;;;;;4912888;29;20485;-84
2021/05/25 00:58:03;;;;;;;7.60;1.60;;;8.50;91.00;;;;;;4988115;28;21027;-85
2021/05/25 01:04:33;;;;;;;;;;;;;;;;;;;;;
2021/05/25 01:07:56;;;;;;;;;;;;;;;;;;;;;
2021/05/25 01:14:34;;;;;;;;;;;;;;;;;;;;;
2021/05/25 01:27:14;;;;;;;9.17;1.63;;;8.30;91.80;;;;;;4731322;30;20494;-83
2021/05/25 01:59:21;;;;;;;;;;;;;;;;;;;;;
2021/05/25 02:02:21;;;;;;;8.20;1.60;;;8.00;94.70;;;;;;4868092;29;20445;-84
2021/05/25 02:08:49;;;;;;;7.23;1.40;;;8.10;94.90;;;;;;4909685;29;20457;-85
2021/05/25 02:18:15;;;;;;;7.20;1.13;;;8.30;89.40;;;;;;4904554;29;20470;-85
2021/05/25 02:23:26;;;;;;;7.30;1.17;;;8.40;87.00;;;;;;5281498;23;21018;-84
2021/05/25 02:26:18;;;;;;;8.77;1.40;;;8.40;88.70;;;;;;5013534;28;20452;-85
2021/05/25 02:37:14;;;;;;;7.20;1.27;;;8.20;88.40;;;;;;4177916;26;20479;-84
2021/05/25 02:40:23;;;;;;;7.33;1.10;;;8.40;87.00;;;;;;4914009;29;21001;-84
2021/05/25 02:52:44;;;;;;;7.27;1.10;;;8.60;85.90;;;;;;4779957;29;20495;-82
2021/05/25 02:58:32;;;;;;;7.33;1.07;;;8.60;88.80;;;;;;4952599;29;20483;-84
2021/05/25 03:01:30;;;;;;;7.40;1.30;;;8.50;88.90;;;;;;4952834;28;20963;-83
2021/05/25 03:08:04;;;;;;;;;;;;;;;;;;;;;
2021/05/25 03:11:37;;;;;;;;;;;;;;;;;;;;;
2021/05/25 03:37:23;;;;;;;7.40;1.23;;;8.70;91.70;;;;;;4779283;29;20824;-86
2021/05/25 03:39:49;;;;;;;7.33;1.10;;;8.70;93.10;;;;;;4917558;29;20677;-82
2021/05/25 03:42:25;;;;;;;7.50;1.33;;;8.60;94.90;;;;;;4968569;28;20462;-83
2021/05/25 03:45:05;;;;;;;;;;;;;;;;;;;;;
2021/05/25 03:47:40;;;;;;;10.03;1.57;;;8.50;99.90;;;;;;4975795;28;20541;-83
2021/05/25 03:50:15;;;;;;;8.83;1.50;;;8.40;99.90;;;;;;4977382;28;20831;-82
2021/05/25 03:52:45;;;;;;;7.33;1.23;;;8.50;99.90;;;;;;4975909;28;20461;-82
2021/05/25 03:56:05;;;;;;;;;;;;;;;;;;;;;
2021/05/25 04:02:06;;;;;;;7.43;1.40;;;8.50;99.90;;;;;;4976235;28;20490;-83
2021/05/25 04:07:54;;;;;;;7.30;1.50;;;8.40;99.90;;;;;;4974481;28;20454;-82
2021/05/25 04:10:25;;;;;;;7.73;1.97;;;8.30;99.90;;;;;;4971417;28;20450;-81
2021/05/25 04:12:53;;;;;;;7.73;2.30;;;8.40;99.90;;;;;;4942391;28;20534;-84
2021/05/25 04:15:25;;;;;;;7.50;2.30;;;8.40;99.90;;;;;;4976603;28;20454;-83
2021/05/25 04:17:55;;;;;;;8.80;3.17;;;8.40;99.90;;;;;;4976746;28;20494;-81
2021/05/25 04:20:28;;;;;;;9.73;4.57;;;8.30;99.90;;;;;;4975845;28;20458;-82
2021/05/25 04:23:02;;;;;;;8.70;4.90;;;8.40;99.90;;;;;;4976451;28;20502;-82
2021/05/25 04:25:32;;;;;;;10.23;4.47;;;8.50;99.90;;;;;;4976521;28;20458;-83
2021/05/25 04:28:20;;;;;;;7.93;3.50;;;8.50;99.90;;;;;;4976415;28;20846;-85
2021/05/25 04:31:04;;;;;;;7.73;2.47;;;8.50;99.90;;;;;;4976433;28;20462;-82
2021/05/25 04:33:57;;;;;;;10.67;2.73;;;8.70;99.90;;;;;;4936455;28;20488;-84
2021/05/25 04:36:32;;;;;;;8.10;2.90;;;8.70;99.90;;;;;;4975327;28;20831;-83
2021/05/25 04:39:01;;;;;;;8.03;2.67;;;8.70;99.90;;;;;;4976103;28;20521;-84
2021/05/25 04:41:42;;;;;;;12.40;2.83;;;8.80;99.90;;;;;;4976118;28;20546;-84
2021/05/25 04:44:20;;;;;;;8.17;2.80;;;9.00;99.90;;;;;;4976261;28;20459;-83
2021/05/25 04:47:07;;;;;;;8.17;2.93;;;9.00;99.90;;;;;;4975878;28;20454;-83
2021/05/25 04:49:43;;;;;;;8.20;2.97;;;9.00;99.90;;;;;;4976132;28;20454;-82
2021/05/25 04:53:08;;;;;;;;;;;;;;;;;;;;;
2021/05/25 04:56:21;;;;;;;;;;;;;;;;;;;;;
2021/05/25 05:18:32;;;;;;;15.43;14.20;;;8.70;99.90;;;;;;4842434;29;20492;-84
2021/05/25 05:23:57;;;;;;;21.13;19.57;;;8.60;99.90;;;;;;4876046;29;20891;-84
2021/05/25 05:29:54;;;;;;;;;;;;;;;;;;;;;
2021/05/25 05:32:36;;;;;;;43.47;41.30;;;8.50;99.90;;;;;;4846061;29;20463;-85
2021/05/25 05:39:10;;;;;;;46.27;43.67;;;8.50;99.90;;;;;;4862111;29;21051;-86
2021/05/25 05:45:12;;;;;;;65.37;62.37;;;8.60;99.90;;;;;;4896440;28;20543;-85
2021/05/25 05:48:22;;;;;;;49.80;47.40;;;8.60;99.90;;;;;;4934149;29;20520;-85
2021/05/25 05:51:05;;;;;;;49.83;47.43;;;8.70;99.90;;;;;;4966077;28;20843;-86
2021/05/25 05:54:07;;;;;;;;;;;;;;;;;;;;;
2021/05/25 06:16:03;;;;;;;14.70;13.40;;;9.60;99.90;;;;;;4821765;29;20501;-86
2021/05/25 06:18:58;;;;;;;16.23;14.90;;;9.60;99.90;;;;;;4818069;29;20478;-85
2021/05/25 06:25:54;;;;;;;26.60;25.00;;;9.00;99.90;;;;;;4886515;29;20522;-83
2021/05/25 06:29:01;;;;;;;37.90;35.90;;;8.80;99.90;;;;;;4862911;29;20471;-84
2021/05/25 06:32:02;;;;;;;;;;;;;;;;;;;;;
2021/05/25 06:34:30;;;;;;;32.17;30.37;;;8.80;99.90;;;;;;4927547;28;20546;-84
2021/05/25 06:37:00;;;;;;;42.37;40.20;;;8.80;99.90;;;;;;4953738;29;20463;-84
2021/05/25 06:39:36;;;;;;;56.17;53.47;;;8.90;99.90;;;;;;4954678;29;20484;-84
2021/05/25 06:42:10;;;;;;;62.20;59.27;;;9.10;99.90;;;;;;4954953;29;20459;-86
2021/05/25 06:45:08;;;;;;;61.27;58.27;;;9.30;99.90;;;;;;4954855;29;20466;-87
2021/05/25 06:48:25;;;;;;;62.30;59.30;;;9.60;99.90;;;;;;4895263;29;20882;-85
2021/05/25 06:50:56;;;;;;;53.37;50.67;;;9.70;99.90;;;;;;4894507;29;20468;-84
2021/05/25 06:54:08;;;;;;;50.03;47.33;;;9.60;99.90;;;;;;4895388;29;20469;-84
2021/05/25 06:56:48;;;;;;;47.63;45.17;;;9.60;99.90;;;;;;4895873;29;20525;-85
2021/05/25 06:59:40;;;;;;;;;;;;;;;;;;;;;
2021/05/25 07:02:09;;;;;;;44.87;42.57;;;9.50;99.90;;;;;;4939752;29;20555;-83
2021/05/25 07:05:09;;;;;;;;;;;;;;;;;;;;;
2021/05/25 07:07:38;;;;;;;18.13;16.53;;;10.00;99.90;;;;;;4854162;29;20467;-85
2021/05/25 07:12:59;;;;;;;10.93;7.53;;;10.00;99.90;;;;;;4889424;29;20829;-84
2021/05/25 07:15:25;;;;;;;10.37;5.80;;;9.60;99.90;;;;;;4958865;29;20443;-84
2021/05/25 07:17:57;;;;;;;10.43;6.43;;;9.10;99.90;;;;;;4958463;29;20462;-84
2021/05/25 07:20:29;;;;;;;10.53;7.90;;;8.60;99.90;;;;;;4957744;29;20518;-83
2021/05/25 07:23:07;;;;;;;12.37;11.17;;;8.30;99.90;;;;;;4968884;28;20841;-84
2021/05/25 07:25:45;;;;;;;;;;;;;;;;;;;;;
2021/05/25 07:28:13;;;;;;;24.90;23.30;;;8.30;99.90;;;;;;4977563;28;20451;-85
2021/05/25 07:31:07;;;;;;;21.30;19.80;;;8.40;99.90;;;;;;4977738;28;20520;-85
2021/05/25 07:33:50;;;;;;;;;;;;;;;;;;;;;
2021/05/25 07:36:31;;;;;;;;;;;;;;;;;;;;;
2021/05/25 07:39:49;;;;;;;44.27;42.07;;;8.70;99.90;;;;;;4955953;28;20487;-85
2021/05/25 07:42:25;;;;;;;37.53;35.10;;;9.40;99.90;;;;;;4897116;29;20553;-85
2021/05/25 07:45:15;;;;;;;37.73;35.63;;;9.50;99.90;;;;;;4896264;29;20459;-85
2021/05/25 07:51:51;;;;;;;;;;;;;;;;;;;;;
2021/05/25 07:54:41;;;;;;;;;;;;;;;;;;;;;
2021/05/25 07:57:43;;;;;;;;;;;;;;;;;;;;;
2021/05/25 08:00:47;;;;;;;;;;;;;;;;;;;;;
2021/05/25 08:06:56;;;;;;;;;;;;;;;;;;;;;
2021/05/25 08:09:26;;;;;;;14.20;1.70;;;12.40;75.90;;;;;;4939620;28;20454;-85
2021/05/25 08:12:15;;;;;;;13.47;1.33;;;11.90;77.60;;;;;;4976357;28;20459;-84
2021/05/25 08:18:33;;;;;;;;;;;;;;;;;;;;;
2021/05/25 08:24:27;;;;;;;12.40;2.07;;;11.80;80.10;;;;;;4974597;28;20959;-86
2021/05/25 08:34:46;;;;;;;14.63;1.70;;;12.60;66.50;;;;;;4786929;29;20515;-85
2021/05/25 08:45:30;;;;;;;;;;;;;;;;;;;;;
2021/05/25 09:33:41;;;;;;;16.97;1.80;;;13.50;75.50;;;;;;4931936;29;20480;-85
2021/05/25 09:36:15;;;;;;;16.27;1.80;;;13.30;57.80;;;;;;4954861;29;20544;-84
2021/05/25 09:38:51;;;;;;;15.27;2.10;;;13.30;53.10;;;;;;4955648;29;20982;-83
2021/05/25 09:48:14;;;;;;;13.23;5.27;;;10.00;99.90;;;;;;4852822;29;20464;-85
2021/05/25 09:50:41;;;;;;;15.70;5.80;;;9.80;99.90;;;;;;4857777;29;20468;-83
2021/05/25 10:07:27;;;;;;;48.13;45.33;;;9.20;99.90;;;;;;5492264;22;15919516;-85
2021/05/25 10:24:13;;;;;;;;;;;;;;;;;;;;;
2021/05/25 10:30:56;;;;;;;;;;;;;;;;;;;;;
2021/05/25 11:08:32;;;;;;;14.30;3.37;;;12.70;99.90;;;;;;5825646;24;20936;-85
2021/05/25 12:12:08;;;;;;;;;;;;;;;;;;;;;
2021/05/25 12:25:11;;;;;;;;;;;;;;;;;;;;;
2021/05/25 12:27:52;;;;;;;11.93;2.20;;;8.60;99.90;;;;;;5891761;24;20432;-82
2021/05/25 12:30:49;;;;;;;;;;;;;;;;;;;;;
2021/05/25 12:37:05;;;;;;;;;;;;;;;;;;;;;
2021/05/25 15:35:26;;;;;;;14.57;2.37;;;12.40;99.90;;;;;;5756716;24;20899;-83
2021/05/25 15:37:53;;;;;;;15.20;2.70;;;12.40;99.90;;;;;;5985263;23;20171;-86
2021/05/25 15:40:41;;;;;;;14.40;2.33;;;12.40;99.90;;;;;;6123229;23;20438;-88
2021/05/25 15:43:10;;;;;;;13.70;2.53;;;12.20;99.90;;;;;;6131759;23;20449;-83
2021/05/25 15:45:43;;;;;;;15.70;3.60;;;12.20;99.90;;;;;;6132142;23;20450;-83
2021/05/25 15:48:13;;;;;;;15.80;3.70;;;12.30;99.90;;;;;;6123980;23;20524;-83
2021/05/25 15:50:46;;;;;;;13.50;3.40;;;12.40;99.90;;;;;;6157783;23;20840;-84
2021/05/25 15:53:14;;;;;;;18.60;2.90;;;12.30;99.90;;;;;;6185784;23;20401;-81
2021/05/25 15:55:52;;;;;;;13.77;4.57;;;11.80;99.90;;;;;;6185613;23;20487;-78
2021/05/25 15:58:33;;;;;;;15.97;5.60;;;11.90;99.90;;;;;;6186134;23;20480;-85
2021/05/25 16:04:06;;;;;;;15.10;6.60;;;11.60;99.90;;;;;;6182367;23;20731;-84
2021/05/25 16:06:48;;;;;;;13.80;6.00;;;11.60;99.90;;;;;;6184761;23;20491;-82
2021/05/25 16:09:16;;;;;;;15.40;8.70;;;11.60;99.90;;;;;;6196373;23;20723;-81
2021/05/25 16:11:48;;;;;;;18.80;11.90;;;11.60;99.90;;;;;;6196372;23;20740;-82
2021/05/25 16:14:18;;;;;;;18.10;13.10;;;11.70;99.90;;;;;;6185583;23;20413;-82
2021/05/25 16:17:02;;;;;;;15.30;10.40;;;11.60;99.90;;;;;;6186029;23;20401;-84
2021/05/25 16:19:36;;;;;;;15.23;6.60;;;11.50;99.90;;;;;;6185312;23;20725;-83
2021/05/25 16:22:07;;;;;;;16.03;12.87;;;11.20;99.90;;;;;;6184400;23;20404;-81
2021/05/25 16:24:35;;;;;;;18.63;16.93;;;11.10;99.90;;;;;;6185170;23;20445;-82
2021/05/25 16:27:01;;;;;;;28.93;26.70;;;10.90;99.90;;;;;;6185894;23;20401;-83
2021/05/25 16:29:28;;;;;;;40.77;38.17;;;10.80;99.90;;;;;;6186076;23;20428;-83
2021/05/25 16:31:56;;;;;;;44.17;41.50;;;10.90;99.90;;;;;;6195624;23;20432;-83
2021/05/25 16:34:22;;;;;;;42.17;39.63;;;10.90;99.90;;;;;;6195280;23;20409;-82
2021/05/25 16:36:49;;;;;;;48.90;46.20;;;11.00;99.90;;;;;;6184262;23;20405;-82
2021/05/25 16:39:26;;;;;;;46.70;43.97;;;10.90;99.90;;;;;;6185862;23;20397;-82
2021/05/25 16:41:53;;;;;;;35.30;32.90;;;10.90;99.90;;;;;;6195389;23;20428;-82
2021/05/25 16:44:19;;;;;;;33.70;31.00;;;10.80;99.90;;;;;;6185249;23;20405;-82
2021/05/25 16:46:49;;;;;;;29.00;26.90;;;10.70;99.90;;;;;;6195334;23;20881;-84
2021/05/25 16:49:17;;;;;;;34.20;31.80;;;10.50;99.90;;;;;;6184853;23;20492;-83
2021/05/25 16:51:47;;;;;;;35.10;32.77;;;10.50;99.90;;;;;;6193951;23;20913;-84
2021/05/25 16:54:18;;;;;;;38.10;35.90;;;10.50;99.90;;;;;;6195458;23;20782;-84
2021/05/25 16:57:05;;;;;;;31.50;29.33;;;10.70;99.90;;;;;;6185926;23;20397;-83
2021/05/25 16:59:32;;;;;;;28.37;25.50;;;10.80;99.90;;;;;;6195509;23;20421;-84
2021/05/25 17:02:14;;;;;;;26.20;24.30;;;10.90;99.90;;;;;;6195936;23;20493;-83
2021/05/25 17:04:59;;;;;;;18.93;17.13;;;10.90;99.90;;;;;;6195471;23;20476;-85
2021/05/25 17:07:46;;;;;;;19.37;17.57;;;10.80;99.90;;;;;;6184842;23;20397;-83
2021/05/25 17:10:44;;;;;;;13.40;11.17;;;10.70;99.90;;;;;;6193211;23;20413;-82
2021/05/25 17:13:22;;;;;;;17.90;16.00;;;10.50;99.90;;;;;;6194208;23;20417;-83
2021/05/25 17:19:08;;;;;;;26.10;24.27;;;10.20;99.90;;;;;;6194265;23;20440;-83
2021/05/25 17:21:49;;;;;;;32.20;30.20;;;10.20;99.90;;;;;;6100845;23;20576;-82
2021/05/25 17:24:20;;;;;;;38.40;36.10;;;10.00;99.90;;;;;;6160466;23;20522;-83
2021/05/25 17:27:22;;;;;;;38.00;35.80;;;10.10;99.90;;;;;;6193038;23;20779;-83
2021/05/25 17:29:53;;;;;;;40.90;38.40;;;9.90;99.90;;;;;;6193425;23;20408;-85
2021/05/25 17:32:27;;;;;;;41.40;39.00;;;9.90;99.90;;;;;;6183745;23;20468;-83
2021/05/25 17:35:07;;;;;;;44.07;41.57;;;10.00;99.90;;;;;;6193645;23;20880;-83
2021/05/25 17:37:54;;;;;;;48.43;45.87;;;9.90;99.90;;;;;;6192980;23;20888;-83
2021/05/25 17:40:28;;;;;;;50.83;47.97;;;10.00;99.90;;;;;;6193516;23;20413;-83
2021/05/25 17:42:58;;;;;;;47.10;44.50;;;10.00;99.90;;;;;;6193631;23;20417;-81
2021/05/25 17:45:27;;;;;;;46.20;43.80;;;10.10;99.90;;;;;;6183553;23;20433;-82
2021/05/25 17:48:04;;;;;;;45.80;43.13;;;10.10;99.90;;;;;;6184051;23;20858;-82
2021/05/25 17:53:19;;;;;;;42.10;39.53;;;10.20;99.90;;;;;;6192502;23;20417;-82
2021/05/25 17:55:54;;;;;;;35.60;33.00;;;10.20;99.90;;;;;;6193997;23;20413;-82
2021/05/25 17:58:38;;;;;;;32.73;30.53;;;10.20;99.90;;;;;;6193978;23;20413;-82
2021/05/25 18:01:16;;;;;;;29.07;27.17;;;10.20;99.90;;;;;;6183765;23;20401;-82
2021/05/25 18:03:56;;;;;;;32.57;30.27;;;10.30;99.90;;;;;;6185629;23;20779;-82
2021/05/25 18:06:23;;;;;;;35.37;33.13;;;10.30;99.90;;;;;;6193980;23;20828;-82
2021/05/25 18:08:51;;;;;;;35.77;33.10;;;10.40;99.90;;;;;;6185499;23;20408;-82
2021/05/25 18:11:20;;;;;;;38.63;36.03;;;10.50;99.90;;;;;;6194976;23;20746;-82
2021/05/25 18:13:49;;;;;;;41.03;38.27;;;10.40;99.90;;;;;;6185482;23;20413;-81
2021/05/25 18:16:16;;;;;;;36.20;33.63;;;10.40;99.90;;;;;;6186046;23;20401;-81
2021/05/25 18:18:42;;;;;;;33.60;31.10;;;10.30;99.90;;;;;;6187567;23;20507;-82
2021/05/25 18:21:10;;;;;;;31.83;29.73;;;10.20;99.90;;;;;;6196296;23;20911;-82
2021/05/25 18:23:37;;;;;;;28.43;26.53;;;10.20;99.90;;;;;;6186887;23;20440;-82
2021/05/25 18:26:09;;;;;;;32.77;30.57;;;10.20;99.90;;;;;;6187157;23;20433;-82
2021/05/25 18:28:35;;;;;;;35.37;33.17;;;10.10;99.90;;;;;;6187492;23;20401;-82
2021/05/25 18:31:21;;;;;;;35.80;33.60;;;10.10;99.90;;;;;;6187230;23;20432;-81
2021/05/25 18:33:52;;;;;;;41.43;39.07;;;10.10;99.90;;;;;;6187379;23;20401;-81
2021/05/25 18:36:30;;;;;;;41.27;38.07;;;10.10;99.90;;;;;;6185889;23;20405;-82
2021/05/25 18:42:01;;;;;;;47.57;44.87;;;10.00;99.90;;;;;;6167150;23;20996;-82
2021/05/25 18:44:31;;;;;;;48.80;45.80;;;9.90;99.90;;;;;;6196849;23;20411;-82
2021/05/25 18:47:05;;;;;;;47.70;45.00;;;10.00;99.90;;;;;;6196625;23;20475;-82
2021/05/25 18:49:36;;;;;;;46.33;43.80;;;10.00;99.90;;;;;;6187143;23;20459;-82
2021/05/25 18:52:04;;;;;;;55.67;52.33;;;10.00;99.90;;;;;;6185387;23;20433;-83
2021/05/25 18:54:30;;;;;;;53.20;49.93;;;9.90;99.90;;;;;;6197072;23;20436;-81
2021/05/25 18:57:02;;;;;;;50.00;47.17;;;9.80;99.90;;;;;;6196778;23;20412;-82
2021/05/25 18:59:48;;;;;;;46.20;43.47;;;9.80;99.90;;;;;;6186904;23;20404;-83
2021/05/25 19:02:19;;;;;;;53.30;50.33;;;9.80;99.90;;;;;;6187007;23;20405;-84
2021/05/25 19:05:08;;;;;;;;;;;;;;;;;;;;;
2021/05/25 19:07:50;;;;;;;54.63;51.83;;;9.70;99.90;;;;;;6185049;23;20409;-83
2021/05/25 19:10:18;;;;;;;53.97;50.70;;;9.70;99.90;;;;;;6186605;23;20411;-82
2021/05/25 19:12:47;;;;;;;54.00;50.90;;;9.80;99.90;;;;;;6186775;23;20458;-84
2021/05/25 19:15:16;;;;;;;51.13;48.27;;;9.80;99.90;;;;;;6186774;23;20398;-83
2021/05/25 19:17:47;;;;;;;50.73;48.03;;;9.80;99.90;;;;;;6186712;23;20409;-81
2021/05/25 19:20:25;;;;;;;52.90;50.03;;;9.90;99.90;;;;;;6196337;23;20423;-84
2021/05/25 19:23:00;;;;;;;43.00;39.90;;;9.90;99.90;;;;;;6185572;23;20400;-82
2021/05/25 19:25:27;;;;;;;52.40;49.60;;;9.90;99.90;;;;;;6185933;23;20447;-81
2021/05/25 19:27:56;;;;;;;50.17;47.17;;;9.80;99.90;;;;;;6186528;23;20471;-83
2021/05/25 19:30:24;;;;;;;47.70;45.10;;;9.70;99.90;;;;;;6186774;23;20433;-82
2021/05/25 19:32:54;;;;;;;53.20;50.30;;;9.80;99.90;;;;;;6196372;23;20413;-82
2021/05/25 19:35:23;;;;;;;55.93;53.07;;;9.70;99.90;;;;;;6196542;23;20423;-82
2021/05/25 19:37:50;;;;;;;54.90;52.00;;;9.70;99.90;;;;;;6184999;23;20409;-82
2021/05/25 19:40:21;;;;;;;59.50;56.40;;;9.70;99.90;;;;;;6196717;23;20597;-82
2021/05/25 19:42:51;;;;;;;62.40;59.20;;;9.60;99.90;;;;;;6196748;23;20936;-82
2021/05/25 19:45:18;;;;;;;66.47;62.67;;;9.60;99.90;;;;;;6186330;23;20429;-82
2021/05/25 19:47:48;;;;;;;66.70;63.10;;;9.60;99.90;;;;;;6186778;23;20401;-82
2021/05/25 19:50:19;;;;;;;62.67;59.47;;;9.60;99.90;;;;;;6186731;23;20496;-81
2021/05/25 19:52:50;;;;;;;66.47;63.17;;;9.60;99.90;;;;;;6194883;23;20496;-82
2021/05/25 19:55:19;;;;;;;60.67;56.77;;;9.50;99.90;;;;;;6186068;23;20413;-81
2021/05/25 19:57:51;;;;;;;67.60;64.10;;;9.50;99.90;;;;;;6186582;23;20783;-82
2021/05/25 20:00:18;;;;;;;68.90;64.77;;;9.50;99.90;;;;;;6195958;23;20500;-82
2021/05/25 20:02:50;;;;;;;83.00;78.83;;;9.50;99.90;;;;;;6186745;23;20401;-82
2021/05/25 20:05:19;;;;;;;76.43;72.33;;;9.50;99.90;;;;;;6196010;23;20487;-83
2021/05/25 20:07:46;;;;;;;82.60;78.80;;;9.50;99.90;;;;;;6194453;23;20416;-82
2021/05/25 20:10:15;;;;;;;90.57;86.27;;;9.50;99.90;;;;;;6185987;23;20763;-82
2021/05/25 20:12:44;;;;;;;79.97;76.07;;;9.60;99.90;;;;;;6186246;23;20436;-83
2021/05/25 20:15:19;;;;;;;87.13;82.73;;;9.60;99.90;;;;;;6186068;23;20447;-82
2021/05/25 20:17:47;;;;;;;79.50;75.50;;;9.50;99.90;;;;;;6186219;23;20404;-81
2021/05/25 20:20:25;;;;;;;83.30;79.40;;;9.60;99.90;;;;;;6195928;23;20420;-82
2021/05/25 20:22:52;;;;;;;80.67;76.37;;;9.60;99.90;;;;;;6184918;23;20397;-81
2021/05/25 20:25:35;;;;;;;;;;;;;;;;;;;;;
2021/05/25 20:28:02;;;;;;;74.57;70.57;;;9.60;99.90;;;;;;6185418;23;20505;-82
2021/05/25 20:30:31;;;;;;;72.40;68.80;;;9.50;99.90;;;;;;6196067;23;20441;-81
2021/05/25 20:32:58;;;;;;;69.07;65.47;;;9.50;99.90;;;;;;6185957;23;20397;-82
2021/05/25 20:38:14;;;;;;;69.13;65.30;;;9.40;99.90;;;;;;6195757;23;20428;-83
2021/05/25 20:40:44;;;;;;;68.60;65.10;;;9.50;99.90;;;;;;6185867;23;20471;-83
2021/05/25 20:43:12;;;;;;;72.10;68.70;;;9.40;99.90;;;;;;6195797;23;20499;-82
2021/05/25 20:45:43;;;;;;;68.77;64.70;;;9.40;99.90;;;;;;6185300;23;20436;-82
2021/05/25 20:48:12;;;;;;;65.57;62.37;;;9.60;99.90;;;;;;6195487;23;20405;-82
2021/05/25 20:50:39;;;;;;;63.13;59.93;;;9.60;99.90;;;;;;6185230;23;20888;-82
2021/05/25 20:53:08;;;;;;;64.27;60.93;;;9.60;99.90;;;;;;6195343;23;20413;-82
2021/05/25 20:55:36;;;;;;;69.30;65.90;;;9.60;99.90;;;;;;6195903;23;20417;-82
2021/05/25 21:00:53;;;;;;;66.03;62.77;;;9.60;99.90;;;;;;6183926;23;20441;-83
2021/05/25 21:03:26;;;;;;;69.63;66.33;;;9.60;99.90;;;;;;6195466;23;20468;-83
2021/05/25 21:06:18;;;;;;;70.80;67.50;;;9.50;99.90;;;;;;6184517;23;20491;-84
2021/05/25 21:08:46;;;;;;;62.77;59.67;;;9.50;99.90;;;;;;6184555;23;20409;-83
2021/05/25 21:11:29;;;;;;;;;;;;;;;;;;;;;
2021/05/25 21:14:00;;;;;;;63.77;60.57;;;9.50;99.90;;;;;;6192376;23;20412;-83
2021/05/25 21:16:47;;;;;;;74.53;71.10;;;9.50;99.90;;;;;;6185722;23;20480;-83
2021/05/25 21:19:32;;;;;;;;;;;;;;;;;;;;;
2021/05/25 21:22:11;;;;;;;75.03;70.70;;;9.20;99.90;;;;;;6183708;23;20409;-84
2021/05/25 21:24:40;;;;;;;72.00;68.20;;;9.30;99.90;;;;;;6195168;23;20487;-83
2021/05/25 21:27:17;;;;;;;77.77;74.07;;;9.20;99.90;;;;;;6195314;23;20519;-83
2021/05/25 21:29:53;;;;;;;73.30;69.40;;;9.20;99.90;;;;;;6185195;23;20499;-83
2021/05/25 21:32:38;;;;;;;67.67;64.47;;;9.20;99.90;;;;;;6195572;23;20404;-83
2021/05/25 21:35:19;;;;;;;63.17;60.07;;;9.30;99.90;;;;;;6183331;23;20413;-83
2021/05/25 21:38:04;;;;;;;65.40;62.30;;;9.30;99.90;;;;;;6194449;23;20776;-83
2021/05/25 21:40:44;;;;;;;61.47;58.37;;;9.40;99.90;;;;;;6185141;23;20444;-83
2021/05/25 21:43:23;;;;;;;;;;;;;;;;;;;;;
2021/05/25 21:46:02;;;;;;;42.53;40.13;;;9.40;99.90;;;;;;6195661;23;20456;-83
2021/05/25 21:48:36;;;;;;;33.90;31.20;;;9.50;99.90;;;;;;6195278;23;20412;-84
2021/05/25 21:51:37;;;;;;;;;;;;;;;;;;;;;
2021/05/25 22:04:11;;;;;;;;;;;;;;;;;;;;;
2021/05/25 22:06:53;;;;;;;50.33;47.83;;;9.20;99.90;;;;;;6073591;23;20444;-84
2021/05/25 22:09:37;;;;;;;48.87;46.27;;;9.10;99.90;;;;;;6123061;23;20425;-83
2021/05/25 22:12:28;;;;;;;50.37;47.80;;;9.10;99.90;;;;;;6152611;23;20493;-84
2021/05/25 22:15:59;;;;;;;;;;;;;;;;;;;;;
2021/05/25 22:19:22;;;;;;;;;;;;;;;;;;;;;
2021/05/25 22:34:53;;;;;;;70.50;66.80;;;9.00;99.90;;;;;;6006778;23;20425;-84
2021/05/25 22:50:52;;;;;;;;;;;;;;;;;;;;;
2021/05/25 22:53:33;;;;;;;;;;;;;;;;;;;;;
2021/05/25 22:56:00;;;;;;;53.30;50.10;;;8.80;99.90;;;;;;6195023;23;20397;-83
2021/05/25 22:58:50;;;;;;;;;;;;;;;;;;;;;
2021/05/25 23:01:39;;;;;;;52.97;50.17;;;8.80;99.90;;;;;;6194767;23;20476;-84
2021/05/25 23:04:22;;;;;;;53.90;51.00;;;8.90;99.90;;;;;;6197063;23;20888;-83
2021/05/25 23:07:11;;;;;;;51.37;48.57;;;8.80;99.90;;;;;;6185467;23;20439;-84
2021/05/25 23:10:00;;;;;;;48.63;46.03;;;8.80;99.90;;;;;;6187056;23;20400;-82
2021/05/25 23:12:50;;;;;;;46.90;44.50;;;8.70;99.90;;;;;;6186572;23;20401;-83
2021/05/25 23:15:59;;;;;;;41.37;38.63;;;8.80;99.90;;;;;;6186659;23;20415;-83
2021/05/25 23:18:53;;;;;;;;;;;;;;;;;;;;;
2021/05/25 23:21:46;;;;;;;48.53;46.07;;;8.80;99.90;;;;;;6184919;23;21091;-83
2021/05/25 23:24:21;;;;;;;51.97;49.37;;;8.80;99.90;;;;;;6196351;23;20444;-83
2021/05/25 23:26:55;;;;;;;45.07;42.67;;;8.70;99.90;;;;;;6196603;23;20511;-83
2021/05/25 23:32:40;;;;;;;38.63;36.53;;;8.60;99.90;;;;;;6184422;23;20409;-83
2021/05/25 23:38:03;;;;;;;37.23;35.17;;;8.70;99.90;;;;;;6182959;23;20435;-83
2021/05/25 23:40:32;;;;;;;38.97;36.77;;;8.80;99.90;;;;;;6186746;23;20393;-83
2021/05/25 23:43:12;;;;;;;45.10;42.60;;;8.80;99.90;;;;;;6186193;23;20487;-82
2021/05/25 23:45:43;;;;;;;47.33;44.93;;;8.80;99.90;;;;;;6186690;23;20746;-82
2021/05/25 23:48:22;;;;;;;54.37;51.17;;;8.80;99.90;;;;;;6186501;23;20425;-83
2021/05/25 23:53:52;;;;;;;53.40;50.17;;;8.70;99.90;;;;;;6196364;23;20413;-83
2021/05/25 23:56:19;;;;;;;58.33;54.93;;;8.70;99.90;;;;;;6186578;23;20400;-83
2021/05/25 23:58:48;;;;;;;61.70;58.67;;;8.70;99.90;;;;;;6196612;23;20413;-83
